KRUG

Details ICAO KRUG
Name RUGBY MUNI
Region United States
Timezone America/Chicago (UTC-6.0)
Plans Departing 0
Arriving 1
Stats Elevation 1,548 ft / 472 m (AMSL)
Location 48.390372° -100.024285°
Runways 1
Magnetic Variation 5.418° E
Sunrise 2017-12-16 14:27:16 UTC / 2017-12-16 08:27:16 Local
Sunset 2017-12-16 22:47:13 UTC / 2017-12-16 16:47:13 Local
Advertisement - Login to hide

Runways

ID Width Length Bearing (true) Bearing (mag) Surface Threshold Offset Overrun Length
12 60 ft / 18 m 3,598 ft / 1,097 m 128.67° 123.25° Asphalt 0 ft / 0 m 0 ft / 0 m
30 60 ft / 18 m 3,598 ft / 1,097 m 308.68° 303.26° Asphalt 0 ft / 0 m 0 ft / 0 m

Map

Weather


0- 5 10 15 20 25 30 35+ Temperature / ° C

Clouds and Precipitation
Forecast for 2017-12-17 06:00 UTC. Updated an hour ago

Ground ~20,000 ft ~40,000 ft Winds

METAR

KRUG 170455Z AUTO 23009KT 10SM CLR M06/M07 A3000 RMK AO2

TAF

Not found

Frequencies

Unicom 122.80 MHz CTAF/UNICOM
Warning: Do not use this data for real-world aviation or navigation. No guarantee of current accuracy is given.